createdAt,value
2018-10-06T00:00:48.409Z,12.51
2018-10-06T00:03:51.906Z,12.91
2018-10-06T00:06:55.506Z,12.66
2018-10-06T00:09:59.250Z,12.38
2018-10-06T00:13:02.864Z,12.40
2018-10-06T00:16:06.488Z,12.34
2018-10-06T00:19:10.007Z,12.17
2018-10-06T00:22:13.646Z,12.47
2018-10-06T00:25:17.211Z,12.53
2018-10-06T00:28:20.723Z,12.62
2018-10-06T00:31:24.292Z,12.45
2018-10-06T00:34:27.957Z,12.19
2018-10-06T00:37:31.529Z,12.14
2018-10-06T00:40:35.064Z,12.10
2018-10-06T00:43:38.756Z,12.08
2018-10-06T00:46:42.409Z,12.12
2018-10-06T00:49:45.969Z,12.12
2018-10-06T00:52:49.473Z,12.22
2018-10-06T00:55:53.092Z,12.16
2018-10-06T00:58:56.573Z,12.25
2018-10-06T01:02:00.203Z,12.19
2018-10-06T01:05:03.779Z,12.11
2018-10-06T01:08:07.267Z,12.37
2018-10-06T01:11:10.923Z,12.30
2018-10-06T01:14:14.444Z,12.16
2018-10-06T01:17:17.973Z,12.14
2018-10-06T01:20:21.612Z,12.22
2018-10-06T01:23:25.228Z,12.06
2018-10-06T01:26:28.693Z,12.05
2018-10-06T01:29:33.338Z,12.33
2018-10-06T01:32:37.048Z,12.25
2018-10-06T01:35:40.644Z,12.10
2018-10-06T01:38:44.768Z,11.85
2018-10-06T01:41:48.325Z,11.71
2018-10-06T01:44:51.829Z,11.60
2018-10-06T01:47:55.384Z,11.49
2018-10-06T01:50:58.872Z,11.53
2018-10-06T01:54:02.478Z,11.38
2018-10-06T01:57:06.136Z,11.45
2018-10-06T02:00:09.642Z,11.36
2018-10-06T02:03:13.220Z,11.31
2018-10-06T02:06:16.797Z,11.52
2018-10-06T02:09:20.445Z,11.59
2018-10-06T02:12:23.983Z,11.58
2018-10-06T02:15:27.639Z,11.58
2018-10-06T02:18:31.273Z,11.63
2018-10-06T02:21:34.838Z,11.60
2018-10-06T02:24:38.357Z,11.81
2018-10-06T02:27:41.897Z,11.86
2018-10-06T02:30:45.665Z,11.93
2018-10-06T02:33:49.342Z,11.86
2018-10-06T02:36:52.888Z,12.00
2018-10-06T02:39:56.428Z,12.40
2018-10-06T02:43:00.054Z,12.23
2018-10-06T02:46:03.787Z,12.32
2018-10-06T02:49:07.422Z,12.19
2018-10-06T02:52:11.125Z,12.16
2018-10-06T02:55:14.669Z,11.92
2018-10-06T02:58:18.202Z,11.90
2018-10-06T03:01:21.708Z,11.74
2018-10-06T03:04:25.254Z,12.03
2018-10-06T03:07:28.799Z,11.89
2018-10-06T03:10:32.334Z,11.94
2018-10-06T03:13:35.942Z,11.96
2018-10-06T03:16:39.575Z,12.05
2018-10-06T03:19:43.015Z,11.99
2018-10-06T03:22:46.594Z,12.15
2018-10-06T03:25:50.166Z,12.01
2018-10-06T03:28:53.770Z,12.17
2018-10-06T03:31:57.330Z,12.27
2018-10-06T03:35:00.843Z,12.20
2018-10-06T03:38:04.300Z,12.32
2018-10-06T03:41:08.075Z,12.17
2018-10-06T03:44:11.588Z,12.40
2018-10-06T03:47:15.240Z,12.32
2018-10-06T03:50:18.924Z,12.29
2018-10-06T03:53:22.468Z,12.36
2018-10-06T03:56:26.039Z,12.17
2018-10-06T03:59:29.555Z,11.88
2018-10-06T04:02:33.047Z,11.92
2018-10-06T04:05:36.645Z,11.88
2018-10-06T04:08:40.466Z,11.71
2018-10-06T04:11:43.968Z,11.62
2018-10-06T04:14:47.571Z,11.62
2018-10-06T04:17:51.083Z,11.57
2018-10-06T04:20:54.686Z,11.53
2018-10-06T04:23:58.393Z,11.49
2018-10-06T04:27:01.995Z,11.40
2018-10-06T04:30:05.953Z,11.34
2018-10-06T04:33:09.440Z,11.24
2018-10-06T04:36:13.020Z,11.13
2018-10-06T04:39:16.566Z,11.16
2018-10-06T04:42:20.301Z,11.17
2018-10-06T04:45:23.863Z,11.22
2018-10-06T04:48:27.545Z,11.12
2018-10-06T04:51:31.134Z,11.11
2018-10-06T04:54:34.849Z,11.04
2018-10-06T04:57:38.359Z,11.10
2018-10-06T05:00:41.956Z,11.00
2018-10-06T05:03:45.529Z,10.98
2018-10-06T05:06:49.033Z,10.95
2018-10-06T05:09:52.663Z,11.07
2018-10-06T05:12:56.133Z,11.03
2018-10-06T05:15:59.687Z,11.02
2018-10-06T05:19:03.345Z,10.84
2018-10-06T05:22:06.871Z,10.81
2018-10-06T05:25:10.406Z,10.78
2018-10-06T05:28:14.029Z,10.64
2018-10-06T05:31:17.535Z,10.58
2018-10-06T05:34:21.365Z,10.52
2018-10-06T05:37:24.866Z,10.55
2018-10-06T05:40:28.427Z,10.50
2018-10-06T05:43:32.116Z,10.49
2018-10-06T05:46:35.713Z,10.55
2018-10-06T05:49:39.191Z,10.56
2018-10-06T05:52:42.841Z,10.53
2018-10-06T05:55:46.570Z,10.59
2018-10-06T05:58:50.131Z,10.72
2018-10-06T06:01:53.756Z,10.85
2018-10-06T06:04:57.312Z,11.04
2018-10-06T06:08:00.955Z,11.28
2018-10-06T06:11:04.520Z,11.51
2018-10-06T06:14:08.337Z,11.70
2018-10-06T06:17:11.971Z,11.93
2018-10-06T06:20:15.597Z,12.00
2018-10-06T06:23:19.147Z,12.00
2018-10-06T06:26:22.744Z,12.17
2018-10-06T06:29:26.220Z,12.36
2018-10-06T06:32:29.915Z,12.51
2018-10-06T06:35:33.476Z,12.79
2018-10-06T06:38:37.166Z,12.96
2018-10-06T06:41:40.784Z,13.05
2018-10-06T06:44:44.359Z,13.19
2018-10-06T06:47:47.936Z,13.32
2018-10-06T06:50:51.579Z,13.46
2018-10-06T06:53:55.290Z,13.53
2018-10-06T06:56:58.840Z,13.66
2018-10-06T07:00:02.394Z,13.80
2018-10-06T07:03:05.972Z,13.90
2018-10-06T07:06:09.679Z,14.01
2018-10-06T07:09:13.190Z,14.00
2018-10-06T07:12:16.641Z,14.27
2018-10-06T07:15:20.120Z,14.35
2018-10-06T07:18:24.700Z,14.42
2018-10-06T07:21:34.519Z,14.56
2018-10-06T07:24:37.987Z,14.77
2018-10-06T07:27:41.956Z,14.68
2018-10-06T07:30:45.507Z,14.75
2018-10-06T07:33:49.857Z,14.92
2018-10-06T07:36:57.141Z,14.88
2018-10-06T07:40:00.693Z,14.98
2018-10-06T07:43:04.296Z,14.96
2018-10-06T07:46:08.384Z,15.03
2018-10-06T07:49:11.988Z,15.24
2018-10-06T07:52:15.706Z,15.22
2018-10-06T07:55:19.287Z,15.29
2018-10-06T07:58:22.827Z,15.26
2018-10-06T08:01:26.452Z,15.21
2018-10-06T08:04:31.281Z,15.26
2018-10-06T08:07:34.986Z,15.21
2018-10-06T08:10:38.582Z,15.18
2018-10-06T08:13:42.133Z,15.44
2018-10-06T08:16:45.612Z,15.38
2018-10-06T08:19:49.548Z,15.63
2018-10-06T08:22:53.039Z,15.53
2018-10-06T08:25:56.640Z,15.47
2018-10-06T08:29:01.097Z,15.39
2018-10-06T08:32:04.598Z,15.53
2018-10-06T08:35:08.212Z,15.63
2018-10-06T08:38:11.824Z,15.71
2018-10-06T08:41:15.501Z,15.90
2018-10-06T08:44:19.001Z,16.05
2018-10-06T08:47:22.598Z,16.05
2018-10-06T08:50:26.413Z,16.03
2018-10-06T08:53:30.187Z,16.19
2018-10-06T08:56:33.791Z,16.13
2018-10-06T08:59:37.417Z,16.10
2018-10-06T09:02:40.983Z,16.22
2018-10-06T09:05:44.663Z,16.19
2018-10-06T09:08:48.288Z,16.50
2018-10-06T09:11:51.885Z,16.52
2018-10-06T09:14:55.368Z,16.61
2018-10-06T09:17:58.978Z,16.62
2018-10-06T09:21:02.444Z,16.84
2018-10-06T09:24:06.392Z,16.89
2018-10-06T09:27:10.099Z,16.91
2018-10-06T09:30:13.736Z,17.17
2018-10-06T09:33:17.247Z,16.98
2018-10-06T09:36:20.779Z,17.15
2018-10-06T09:39:24.263Z,17.20
2018-10-06T09:42:27.930Z,17.34
2018-10-06T09:45:31.378Z,17.48
2018-10-06T09:48:34.934Z,17.28
2018-10-06T09:51:38.471Z,17.31
2018-10-06T09:54:42.011Z,17.51
2018-10-06T09:57:45.546Z,17.47
2018-10-06T10:00:54.328Z,17.70
2018-10-06T10:04:03.124Z,17.64
2018-10-06T10:07:06.879Z,17.67
2018-10-06T10:10:10.430Z,17.79
2018-10-06T10:13:13.930Z,17.75
2018-10-06T10:16:17.494Z,17.66
2018-10-06T10:19:21.080Z,17.82
2018-10-06T10:22:24.793Z,17.83
2018-10-06T10:25:28.244Z,17.66
2018-10-06T10:28:31.941Z,17.97
2018-10-06T10:31:35.518Z,18.12
2018-10-06T10:34:39.354Z,18.26
2018-10-06T10:37:49.688Z,18.33
2018-10-06T10:40:53.198Z,18.41
2018-10-06T10:43:56.845Z,18.29
2018-10-06T10:47:00.495Z,18.06
2018-10-06T10:50:04.129Z,18.27
2018-10-06T10:53:07.760Z,18.35
2018-10-06T10:56:17.668Z,18.62
2018-10-06T10:59:21.303Z,18.49
2018-10-06T11:02:24.784Z,18.77
2018-10-06T11:05:28.431Z,19.15
2018-10-06T11:08:32.169Z,19.32
2018-10-06T11:11:36.044Z,19.31
2018-10-06T11:14:39.602Z,19.36
2018-10-06T11:17:43.200Z,19.15
2018-10-06T11:20:46.875Z,19.35
2018-10-06T11:23:50.590Z,19.66
2018-10-06T11:26:54.225Z,19.73
2018-10-06T11:29:57.786Z,19.67
2018-10-06T11:33:01.331Z,19.69
2018-10-06T11:36:04.900Z,19.61
2018-10-06T11:39:09.610Z,19.42
2018-10-06T11:42:13.385Z,19.51
2018-10-06T11:45:16.990Z,19.92
2018-10-06T11:48:20.595Z,20.00
2018-10-06T11:51:24.458Z,19.98
2018-10-06T11:54:28.085Z,20.21
2018-10-06T11:57:31.698Z,20.16
2018-10-06T12:00:35.391Z,20.60
2018-10-06T12:03:39.108Z,20.53
2018-10-06T12:06:42.716Z,20.49
2018-10-06T12:09:46.351Z,20.26
2018-10-06T12:12:49.932Z,20.45
2018-10-06T12:15:53.502Z,20.61
2018-10-06T12:18:57.040Z,20.64
2018-10-06T12:22:00.629Z,21.04
2018-10-06T12:25:04.217Z,20.84
2018-10-06T12:28:07.787Z,20.79
2018-10-06T12:31:11.480Z,20.91
2018-10-06T12:34:15.191Z,20.91
2018-10-06T12:37:18.765Z,21.08
2018-10-06T12:40:22.414Z,20.98
2018-10-06T12:43:26.195Z,20.86
2018-10-06T12:46:29.786Z,20.90
2018-10-06T12:49:33.380Z,20.84
2018-10-06T12:52:36.917Z,20.95
2018-10-06T12:55:40.664Z,20.48
2018-10-06T12:58:44.367Z,20.87
2018-10-06T13:01:48.321Z,20.84
2018-10-06T13:04:51.852Z,20.66
2018-10-06T13:07:55.482Z,20.58
2018-10-06T13:10:59.036Z,20.99
2018-10-06T13:14:02.717Z,21.10
2018-10-06T13:17:06.579Z,21.21
2018-10-06T13:20:10.394Z,21.34
2018-10-06T13:23:13.985Z,21.30
2018-10-06T13:26:17.536Z,20.89
2018-10-06T13:29:21.177Z,21.21
2018-10-06T13:32:24.766Z,21.32
2018-10-06T13:35:28.412Z,21.29
2018-10-06T13:38:32.044Z,21.23
2018-10-06T13:41:35.646Z,21.48
2018-10-06T13:44:39.290Z,21.47
2018-10-06T13:47:42.887Z,21.64
2018-10-06T13:50:46.502Z,21.46
2018-10-06T13:53:50.262Z,21.21
2018-10-06T13:56:53.933Z,21.20
2018-10-06T13:59:57.582Z,21.08
2018-10-06T14:03:01.180Z,21.42
2018-10-06T14:06:04.852Z,21.36
2018-10-06T14:09:09.342Z,21.40
2018-10-06T14:12:12.820Z,21.29
2018-10-06T14:15:16.450Z,21.22
2018-10-06T14:18:20.145Z,21.11
2018-10-06T14:21:23.817Z,21.40
2018-10-06T14:24:27.371Z,20.68
2018-10-06T14:27:31.000Z,20.74
2018-10-06T14:30:34.607Z,21.28
2018-10-06T14:33:38.320Z,21.34
2018-10-06T14:36:42.106Z,21.29
2018-10-06T14:39:45.756Z,21.46
2018-10-06T14:42:49.256Z,21.57
2018-10-06T14:45:52.778Z,21.73
2018-10-06T14:48:56.314Z,21.73
2018-10-06T14:51:59.973Z,21.59
2018-10-06T14:55:03.677Z,21.37
2018-10-06T14:58:07.321Z,21.45
2018-10-06T15:01:11.030Z,21.79
2018-10-06T15:04:14.581Z,21.85
2018-10-06T15:07:18.384Z,21.29
2018-10-06T15:10:22.125Z,21.15
2018-10-06T15:13:25.746Z,20.64
2018-10-06T15:16:29.484Z,20.28
2018-10-06T15:19:33.065Z,20.53
2018-10-06T15:22:36.659Z,20.32
2018-10-06T15:25:40.210Z,20.50
2018-10-06T15:28:43.810Z,20.70
2018-10-06T15:31:47.384Z,20.35
2018-10-06T15:34:51.079Z,20.39
2018-10-06T15:37:55.306Z,20.54
2018-10-06T15:40:59.616Z,20.30
2018-10-06T15:44:03.256Z,20.22
2018-10-06T15:47:06.926Z,20.10
2018-10-06T15:50:10.116Z,20.39
2018-10-06T15:53:13.722Z,20.24
2018-10-06T15:56:17.382Z,20.80
2018-10-06T15:59:21.066Z,20.58
2018-10-06T16:02:24.751Z,20.45
2018-10-06T16:05:28.297Z,20.25
2018-10-06T16:08:31.844Z,19.87
2018-10-06T16:11:35.931Z,19.62
2018-10-06T16:14:39.813Z,19.51
2018-10-06T16:17:43.497Z,19.28
2018-10-06T16:20:47.094Z,19.08
2018-10-06T16:23:50.794Z,18.92
2018-10-06T16:26:54.377Z,18.72
2018-10-06T16:29:58.154Z,18.56
2018-10-06T16:33:01.889Z,18.43
2018-10-06T16:36:05.538Z,18.30
2018-10-06T16:39:09.163Z,18.18
2018-10-06T16:42:12.718Z,18.13
2018-10-06T16:45:16.388Z,17.79
2018-10-06T16:48:20.094Z,17.73
2018-10-06T16:51:23.725Z,17.59
2018-10-06T16:54:27.363Z,17.44
2018-10-06T16:57:31.058Z,17.45
2018-10-06T17:00:34.684Z,17.45
2018-10-06T17:03:38.302Z,17.30
2018-10-06T17:06:42.047Z,17.26
2018-10-06T17:09:45.647Z,17.18
2018-10-06T17:12:49.284Z,17.29
2018-10-06T17:15:52.934Z,17.06
2018-10-06T17:18:56.527Z,17.01
2018-10-06T17:22:00.173Z,16.94
2018-10-06T17:25:03.890Z,16.90
2018-10-06T17:28:07.594Z,16.96
2018-10-06T17:31:11.260Z,16.87
2018-10-06T17:34:14.866Z,16.85
2018-10-06T17:37:18.503Z,17.09
2018-10-06T17:40:22.203Z,17.13
2018-10-06T17:43:25.845Z,17.15
2018-10-06T17:46:29.580Z,17.08
2018-10-06T17:49:33.209Z,17.10
2018-10-06T17:52:36.875Z,16.92
2018-10-06T17:55:40.586Z,16.84
2018-10-06T17:58:44.249Z,16.78
2018-10-06T18:01:47.770Z,16.67
2018-10-06T18:04:51.433Z,16.64
2018-10-06T18:07:54.960Z,16.65
2018-10-06T18:10:58.582Z,16.74
2018-10-06T18:14:02.189Z,16.74
2018-10-06T18:17:05.854Z,16.81
2018-10-06T18:20:09.431Z,16.90
2018-10-06T18:23:13.106Z,16.84
2018-10-06T18:26:16.915Z,16.85
2018-10-06T18:29:20.717Z,16.82
2018-10-06T18:32:24.264Z,16.90
2018-10-06T18:35:27.925Z,17.01
2018-10-06T18:38:31.741Z,17.02
2018-10-06T18:41:35.411Z,17.06
2018-10-06T18:44:39.108Z,16.98
2018-10-06T18:47:42.819Z,16.95
2018-10-06T18:50:46.361Z,16.80
2018-10-06T18:53:50.001Z,16.93
2018-10-06T18:56:53.761Z,17.13
2018-10-06T18:59:57.703Z,17.25
2018-10-06T19:03:01.602Z,17.01
2018-10-06T19:06:05.172Z,16.81
2018-10-06T19:09:08.817Z,16.80
2018-10-06T19:12:12.458Z,16.73
2018-10-06T19:15:16.089Z,16.71
2018-10-06T19:18:19.838Z,16.58
2018-10-06T19:21:23.624Z,16.57
2018-10-06T19:24:27.318Z,16.56
2018-10-06T19:27:30.925Z,16.43
2018-10-06T19:30:34.689Z,16.45
2018-10-06T19:33:38.272Z,16.44
2018-10-06T19:36:41.854Z,16.47
2018-10-06T19:39:45.575Z,16.54
2018-10-06T19:42:49.130Z,16.60
2018-10-06T19:45:53.066Z,16.70
2018-10-06T19:48:56.529Z,16.64
2018-10-06T19:52:00.248Z,16.59
2018-10-06T19:55:03.946Z,16.58
2018-10-06T19:58:07.536Z,16.57
2018-10-06T20:01:11.204Z,16.54
2018-10-06T20:04:14.879Z,16.35
2018-10-06T20:07:18.406Z,16.24
2018-10-06T20:10:22.043Z,16.06
2018-10-06T20:13:25.772Z,16.11
2018-10-06T20:16:29.355Z,16.05
2018-10-06T20:19:32.992Z,16.13
2018-10-06T20:22:36.581Z,16.21
2018-10-06T20:25:40.096Z,16.30
2018-10-06T20:28:43.692Z,16.25
2018-10-06T20:31:47.340Z,16.27
2018-10-06T20:34:50.952Z,16.24
2018-10-06T20:37:54.531Z,16.24
2018-10-06T20:40:58.191Z,16.28
2018-10-06T20:44:02.004Z,16.31
2018-10-06T20:47:05.655Z,16.27
2018-10-06T20:50:09.367Z,16.22
2018-10-06T20:53:13.061Z,16.28
2018-10-06T20:56:16.625Z,16.33
2018-10-06T20:59:20.255Z,16.30
2018-10-06T21:02:23.922Z,16.29
2018-10-06T21:05:27.639Z,16.32
2018-10-06T21:08:31.161Z,16.37
2018-10-06T21:11:34.758Z,16.36
2018-10-06T21:14:38.376Z,16.19
2018-10-06T21:17:42.081Z,16.10
2018-10-06T21:20:45.593Z,15.75
2018-10-06T21:23:49.346Z,15.74
2018-10-06T21:26:52.841Z,15.54
2018-10-06T21:29:56.455Z,15.30
2018-10-06T21:33:00.001Z,15.36
2018-10-06T21:36:03.557Z,15.19
2018-10-06T21:39:09.078Z,15.22
2018-10-06T21:42:12.656Z,15.36
2018-10-06T21:45:16.286Z,15.36
2018-10-06T21:48:19.987Z,15.27
2018-10-06T21:51:23.609Z,15.32
2018-10-06T21:54:27.257Z,15.34
2018-10-06T21:57:31.006Z,15.31
2018-10-06T22:00:34.777Z,15.15
2018-10-06T22:03:38.883Z,15.13
2018-10-06T22:06:42.638Z,15.42
2018-10-06T22:09:46.246Z,15.66
2018-10-06T22:12:49.752Z,15.58
2018-10-06T22:15:53.357Z,15.71
2018-10-06T22:18:56.896Z,15.60
2018-10-06T22:22:00.448Z,15.54
2018-10-06T22:25:04.025Z,15.55
2018-10-06T22:28:07.705Z,15.52
2018-10-06T22:31:11.191Z,15.37
2018-10-06T22:34:14.848Z,15.36
2018-10-06T22:37:18.452Z,15.18
2018-10-06T22:40:22.042Z,15.01
2018-10-06T22:43:25.585Z,14.86
2018-10-06T22:46:30.394Z,14.75
2018-10-06T22:49:33.898Z,14.68
2018-10-06T22:52:37.522Z,14.60
2018-10-06T22:55:41.216Z,14.45
2018-10-06T22:58:44.736Z,14.39
2018-10-06T23:01:48.477Z,14.34
2018-10-06T23:04:51.961Z,14.34
2018-10-06T23:07:55.570Z,14.37
2018-10-06T23:10:59.072Z,14.40
2018-10-06T23:14:02.798Z,14.42
2018-10-06T23:17:06.619Z,14.37
2018-10-06T23:20:10.212Z,14.36
2018-10-06T23:23:13.713Z,14.30
2018-10-06T23:26:17.364Z,14.27
2018-10-06T23:29:21.045Z,14.17
2018-10-06T23:32:24.517Z,14.12
2018-10-06T23:35:28.107Z,14.12
2018-10-06T23:38:31.698Z,14.09
2018-10-06T23:41:35.342Z,14.08
2018-10-06T23:44:38.892Z,13.96
2018-10-06T23:47:42.499Z,13.90
2018-10-06T23:50:46.064Z,13.80
2018-10-06T23:53:49.754Z,13.77
2018-10-06T23:56:53.293Z,13.73
2018-10-06T23:59:56.937Z,13.70
